sensor_id;sensor_type;location;lat;lon;timestamp;pressure;altitude;pressure_sealevel;temperature;humidity
46382;BME280;66809;52.974;-2.514;2023-06-05T00:01:48;1019.4262487156724;;;13.053659181156863;32.561200099802655
46382;BME280;66809;52.974;-2.514;2023-06-05T00:03:49;1019.4370424130494;;;13.024442905710506;32.578500795839695
46382;BME280;66809;52.974;-2.514;2023-06-05T00:05:49;1019.4485393343343;;;12.999756216771004;32.599964060953255
46382;BME280;66809;52.974;-2.514;2023-06-05T00:07:48;1019.4586449471832;;;12.975422435781352;32.618948755751475
46382;BME280;66809;52.974;-2.514;2023-06-05T00:09:49;1019.4697394800186;;;12.943534289308472;32.642792429689536
46382;BME280;66809;52.974;-2.514;2023-06-05T00:11:49;1019.4801058812851;;;12.922147540599548;32.664268128940435
46382;BME280;66809;52.974;-2.514;2023-06-05T00:13:48;1019.4895341853129;;;12.901693458150339;32.68819244250083
46382;BME280;66809;52.974;-2.514;2023-06-05T00:15:49;1019.4986822187537;;;12.871471905804496;32.70896425681768
46382;BME280;66809;52.974;-2.514;2023-06-05T00:17:49;1019.506220121204;;;12.845877834454596;32.728748355604324
46382;BME280;66809;52.974;-2.514;2023-06-05T00:19:48;1019.5138532916984;;;12.81446865244982;32.749524161929315
46382;BME280;66809;52.974;-2.514;2023-06-05T00:21:49;1019.5214518861268;;;12.782523917671345;32.76095724559063
46382;BME280;66809;52.974;-2.514;2023-06-05T00:23:49;1019.5288781106699;;;12.765819473946978;32.764522916462326
46382;BME280;66809;52.974;-2.514;2023-06-05T00:25:48;1019.5349291733936;;;12.74286299885036;32.76651609733679
46382;BME280;66809;52.974;-2.514;2023-06-05T00:27:49;1019.5392571468524;;;12.719914945111931;32.77216572068598
46382;BME280;66809;52.974;-2.514;2023-06-05T00:29:49;1019.5441166704378;;;12.70626054769355;32.77391881862441
46382;BME280;66809;52.974;-2.514;2023-06-05T00:31:48;1019.5501233650033;;;12.693110280338237;32.774086571761174
46382;BME280;66809;52.974;-2.514;2023-06-05T00:33:49;1019.5556766893263;;;12.675340943095565;32.77445267846089
46382;BME280;66809;52.974;-2.514;2023-06-05T00:35:49;1019.5612803049545;;;12.662484752251679;32.77244696821002
46382;BME280;66809;52.974;-2.514;2023-06-05T00:37:48;1019.5665866563073;;;12.644261695414253;32.76827715729156
46382;BME280;66809;52.974;-2.514;2023-06-05T00:39:49;1019.5715471112951;;;12.624783787861169;32.76756930284923
46382;BME280;66809;52.974;-2.514;2023-06-05T00:41:49;1019.5760334618196;;;12.59501453937872;32.76280748592228
46382;BME280;66809;52.974;-2.514;2023-06-05T00:43:48;1019.5817874183166;;;12.565648601028117;32.755375511190884
46382;BME280;66809;52.974;-2.514;2023-06-05T00:45:51;1019.5869405899841;;;12.540484556994576;32.748553927564544
46382;BME280;66809;52.974;-2.514;2023-06-05T00:47:49;1019.5901562814091;;;12.512816660591987;32.74285146672411
46382;BME280;66809;52.974;-2.514;2023-06-05T00:49:49;1019.5927013313874;;;12.479140423257356;32.738233053742285
46382;BME280;66809;52.974;-2.514;2023-06-05T00:51:50;1019.5943668048711;;;12.45524300685859;32.740036350287845
46382;BME280;66809;52.974;-2.514;2023-06-05T00:53:50;1019.597641748176;;;12.423135863885248;32.74236166463985
46382;BME280;66809;52.974;-2.514;2023-06-05T00:55:48;1019.6019114840681;;;12.399457716510296;32.746497728592516
46382;BME280;66809;52.974;-2.514;2023-06-05T00:57:48;1019.6060820479124;;;12.369846829266502;32.74984290101947
46382;BME280;66809;52.974;-2.514;2023-06-05T00:59:50;1019.6085765586253;;;12.347260979089784;32.754456219038474
46382;BME280;66809;52.974;-2.514;2023-06-05T01:01:49;1019.6110440797543;;;12.324960811376997;32.75827786420691
46382;BME280;66809;52.974;-2.514;2023-06-05T01:03:49;1019.6129437084415;;;12.2937808949293;32.75743902009023
46382;BME280;66809;52.974;-2.514;2023-06-05T01:05:49;1019.6135677167803;;;12.264597795674181;32.75488656649205
46382;BME280;66809;52.974;-2.514;2023-06-05T01:07:49;1019.6159234563152;;;12.229955417854821;32.75372236428558
46382;BME280;66809;52.974;-2.514;2023-06-05T01:09:49;1019.6174681414286;;;12.212021543542205;32.74740983605781
46382;BME280;66809;52.974;-2.514;2023-06-05T01:11:53;1019.6177731947538;;;12.174018316726112;32.74608685678327
46382;BME280;66809;52.974;-2.514;2023-06-05T01:13:55;1019.6184532451073;;;12.146956744626701;32.743020284871136
46382;BME280;66809;52.974;-2.514;2023-06-05T01:15:50;1019.6193899176927;;;12.11647549564421;32.74906466583267
46382;BME280;66809;52.974;-2.514;2023-06-05T01:17:49;1019.6213838235358;;;12.082440146612745;32.75643113361031
46382;BME280;66809;52.974;-2.514;2023-06-05T01:19:50;1019.6241798984344;;;12.049237434856202;32.76759601607702
46382;BME280;66809;52.974;-2.514;2023-06-05T01:21:48;1019.6269061025131;;;12.014705053905255;32.78464296790421
46382;BME280;66809;52.974;-2.514;2023-06-05T01:23:49;1019.6285917453904;;;11.975811945723853;32.80666590605564
46382;BME280;66809;52.974;-2.514;2023-06-05T01:25:49;1019.630242456136;;;11.941221568290505;32.8311693119371
46382;BME280;66809;52.974;-2.514;2023-06-05T01:27:55;1019.6310469217302;;;11.898432015075683;32.85613426722089
46382;BME280;66809;52.974;-2.514;2023-06-05T01:29:53;1019.6282682657665;;;11.847794014798415;32.88447818740568
46382;BME280;66809;52.974;-2.514;2023-06-05T01:31:50;1019.6238643250603;;;11.798632668783348;32.91601276893685
46382;BME280;66809;52.974;-2.514;2023-06-05T01:34:01;1019.617932992147;;;11.750698863975193;32.95665293141372
46382;BME280;66809;52.974;-2.514;2023-06-05T01:35:49;1019.612045207164;;;11.691824657319522;33.00197734629799
46382;BME280;66809;52.974;-2.514;2023-06-05T01:37:49;1019.6064771973818;;;11.630933956376307;33.049488902277645
46382;BME280;66809;52.974;-2.514;2023-06-05T01:39:49;1019.602611659391;;;11.583068261536445;33.097961948854916
46382;BME280;66809;52.974;-2.514;2023-06-05T01:41:49;1019.599562393262;;;11.535177357898679;33.14771484581187
46382;BME280;66809;52.974;-2.514;2023-06-05T01:43:49;1019.5952626696321;;;11.487378876861305;33.2018027153389
46382;BME280;66809;52.974;-2.514;2023-06-05T01:45:49;1019.5922095700575;;;11.439176297270196;33.25110188325511
46382;BME280;66809;52.974;-2.514;2023-06-05T01:47:49;1019.5910812043695;;;11.39097293468205;33.30190651151171
46382;BME280;66809;52.974;-2.514;2023-06-05T01:49:49;1019.5892170035874;;;11.358659713422215;33.34841395908209
46382;BME280;66809;52.974;-2.514;2023-06-05T01:51:48;1019.5875553563809;;;11.313836177872094;33.393389151830014
46382;BME280;66809;52.974;-2.514;2023-06-05T01:53:49;1019.5862136690557;;;11.275557947189245;33.43494053817042
46382;BME280;66809;52.974;-2.514;2023-06-05T01:55:49;1019.5842441352199;;;11.250959260456488;33.47698783236149
46382;BME280;66809;52.974;-2.514;2023-06-05T01:57:49;1019.5827701770905;;;11.223662656807388;33.51723057329205
46382;BME280;66809;52.974;-2.514;2023-06-05T01:59:48;1019.5814097948535;;;11.198886689200256;33.55557894425987
46382;BME280;66809;52.974;-2.514;2023-06-05T02:01:49;1019.5790145106824;;;11.176152445679524;33.60286202423728
46382;BME280;66809;52.974;-2.514;2023-06-05T02:03:49;1019.5754323946187;;;11.168305525747998;33.65177330758195
46382;BME280;66809;52.974;-2.514;2023-06-05T02:05:48;1019.5719023992008;;;11.1505285584299;33.7054991196916
46382;BME280;66809;52.974;-2.514;2023-06-05T02:07:50;1019.5680175047637;;;11.132936450890963;33.7590197434711
46382;BME280;66809;52.974;-2.514;2023-06-05T02:09:49;1019.5637924509135;;;11.110011106435593;33.814215291546844
46382;BME280;66809;52.974;-2.514;2023-06-05T02:11:49;1019.5612249907847;;;11.106088044139266;33.86985237294773
46382;BME280;66809;52.974;-2.514;2023-06-05T02:13:48;1019.5593313241199;;;11.087323915231604;33.93024510708038
46382;BME280;66809;52.974;-2.514;2023-06-05T02:15:49;1019.5548541581597;;;11.085271215322308;33.99120545818572
46382;BME280;66809;52.974;-2.514;2023-06-05T02:17:49;1019.5483311188501;;;11.066433611407916;34.053589863300836
46382;BME280;66809;52.974;-2.514;2023-06-05T02:19:48;1019.541068044863;;;11.055567542733343;34.115436749102535
46382;BME280;66809;52.974;-2.514;2023-06-05T02:21:49;1019.5325717544905;;;11.04400620945506;34.172906353936845
46382;BME280;66809;52.974;-2.514;2023-06-05T02:23:49;1019.5258933385242;;;11.039309417568159;34.22794698974998
46382;BME280;66809;52.974;-2.514;2023-06-05T02:25:49;1019.5196714955941;;;11.042107328933307;34.2815422454896
46382;BME280;66809;52.974;-2.514;2023-06-05T02:27:49;1019.5137067964055;;;11.0591539917792;34.33687440167258
46382;BME280;66809;52.974;-2.514;2023-06-05T02:29:48;1019.5086403696082;;;11.073511140500392;34.395229664184015
46382;BME280;66809;52.974;-2.514;2023-06-05T02:31:49;1019.5037559209616;;;11.088307310941016;34.44546768950114
46382;BME280;66809;52.974;-2.514;2023-06-05T02:33:50;1019.5004051085265;;;11.110295712857821;34.48865165618904
46382;BME280;66809;52.974;-2.514;2023-06-05T02:35:49;1019.497755727218;;;11.140341760059949;34.528904563632395
46382;BME280;66809;52.974;-2.514;2023-06-05T02:37:49;1019.4944753302348;;;11.174681295774057;34.57246379676328
46382;BME280;66809;52.974;-2.514;2023-06-05T02:39:49;1019.488738004504;;;11.200628375553306;34.61403723502817
46382;BME280;66809;52.974;-2.514;2023-06-05T02:41:49;1019.4829103741876;;;11.223006659943012;34.65422353559925
46382;BME280;66809;52.974;-2.514;2023-06-05T02:43:49;1019.4779353620446;;;11.251381969815373;34.69322039487291
46382;BME280;66809;52.974;-2.514;2023-06-05T02:45:48;1019.4725591768963;;;11.275549934069137;34.73093130606974
46382;BME280;66809;52.974;-2.514;2023-06-05T02:47:49;1019.4665201935162;;;11.31099230581216;34.768737003361224
46382;BME280;66809;52.974;-2.514;2023-06-05T02:49:49;1019.4611607803248;;;11.324129553200995;34.794935395716145
46382;BME280;66809;52.974;-2.514;2023-06-05T02:51:48;1019.4552047181047;;;11.352936348755327;34.8200608032438
46382;BME280;66809;52.974;-2.514;2023-06-05T02:53:49;1019.4504793054714;;;11.38072649436962;34.85031572572215
46382;BME280;66809;52.974;-2.514;2023-06-05T02:55:49;1019.4461010796671;;;11.397040615603961;34.87664703164354
46382;BME280;66809;52.974;-2.514;2023-06-05T02:57:48;1019.4407643997149;;;11.42221772514264;34.902501977932296
46382;BME280;66809;52.974;-2.514;2023-06-05T02:59:49;1019.4352975584836;;;11.448358969950489;34.936173696772734
46382;BME280;66809;52.974;-2.514;2023-06-05T03:01:48;1019.4293007315151;;;11.458357625644611;34.96209021417372
46382;BME280;66809;52.974;-2.514;2023-06-05T03:03:49;1019.4238048225487;;;11.477454929810934;34.98125076048144
46382;BME280;66809;52.974;-2.514;2023-06-05T03:05:49;1019.4188041122374;;;11.494799111731004;34.998766660129014
46382;BME280;66809;52.974;-2.514;2023-06-05T03:07:48;1019.4135610905533;;;11.508414848944307;35.01784840887132
46382;BME280;66809;52.974;-2.514;2023-06-05T03:09:49;1019.4090224750006;;;11.534679993710597;35.02705403952091
46382;BME280;66809;52.974;-2.514;2023-06-05T03:11:49;1019.4032092327413;;;11.548513365775948;35.03337975588767
46382;BME280;66809;52.974;-2.514;2023-06-05T03:13:49;1019.3964672315245;;;11.572142356642326;35.03519180089232
46382;BME280;66809;52.974;-2.514;2023-06-05T03:15:48;1019.3918466985765;;;11.578969622017727;35.03057161701057
46382;BME280;66809;52.974;-2.514;2023-06-05T03:17:49;1019.3888236031215;;;11.61353609368835;35.027217154925765
46382;BME280;66809;52.974;-2.514;2023-06-05T03:19:49;1019.3857875169987;;;11.64606295419422;35.00877218670653
46382;BME280;66809;52.974;-2.514;2023-06-05T03:21:48;1019.384619348339;;;11.672819643591303;34.980091480502075
46382;BME280;66809;52.974;-2.514;2023-06-05T03:23:49;1019.381527886572;;;11.688671659815828;34.949440895184935
46382;BME280;66809;52.974;-2.514;2023-06-05T03:25:49;1019.378511355429;;;11.704758981829839;34.912273212299844
46382;BME280;66809;52.974;-2.514;2023-06-05T03:27:49;1019.3748095333624;;;11.722778837293587;34.8726214529795
46382;BME280;66809;52.974;-2.514;2023-06-05T03:29:48;1019.3719154349222;;;11.748670215868627;34.827281511571044
46382;BME280;66809;52.974;-2.514;2023-06-05T03:31:49;1019.3702843311436;;;11.76969888684872;34.79434628080113
46382;BME280;66809;52.974;-2.514;2023-06-05T03:33:48;1019.3689174031867;;;11.782921144567291;34.7545256651923
46382;BME280;66809;52.974;-2.514;2023-06-05T03:35:49;1019.3653982882993;;;11.799899989728067;34.71570605768806
46382;BME280;66809;52.974;-2.514;2023-06-05T03:37:49;1019.3607689335518;;;11.81006679835728;34.6698125637071
46382;BME280;66809;52.974;-2.514;2023-06-05T03:39:48;1019.3573891627159;;;11.835468782761243;34.62400249561058
46382;BME280;66809;52.974;-2.514;2023-06-05T03:41:49;1019.352321508228;;;11.87119495761134;34.57211245659452
46382;BME280;66809;52.974;-2.514;2023-06-05T03:43:49;1019.346882782564;;;11.897223052700049;34.51494112209095
46382;BME280;66809;52.974;-2.514;2023-06-05T03:45:48;1019.3424274801532;;;11.93654541715611;34.466152658863265
46382;BME280;66809;52.974;-2.514;2023-06-05T03:47:49;1019.3386293041706;;;11.960834283162123;34.415397188861654
46382;BME280;66809;52.974;-2.514;2023-06-05T03:49:49;1019.3349339364348;;;11.991512161564392;34.37376865047507
46382;BME280;66809;52.974;-2.514;2023-06-05T03:51:48;1019.3320868559484;;;12.012965789114114;34.32818177943788
46382;BME280;66809;52.974;-2.514;2023-06-05T03:53:49;1019.3271146682795;;;12.046310119244046;34.27578454394504
46382;BME280;66809;52.974;-2.514;2023-06-05T03:55:49;1019.3213767943577;;;12.08396265374173;34.22071751106353
46382;BME280;66809;52.974;-2.514;2023-06-05T03:57:48;1019.3147143399033;;;12.11808002166466;34.16257153420258
46382;BME280;66809;52.974;-2.514;2023-06-05T03:59:49;1019.3074258975453;;;12.150443488865498;34.10065568806594
46382;BME280;66809;52.974;-2.514;2023-06-05T04:01:49;1019.30135688241;;;12.194705680425242;34.03297400149362
46382;BME280;66809;52.974;-2.514;2023-06-05T04:03:49;1019.2959461484977;;;12.22383570166966;33.970468896052736
46382;BME280;66809;52.974;-2.514;2023-06-05T04:05:49;1019.2919924426171;;;12.256256462555417;33.906250176697284
46382;BME280;66809;52.974;-2.514;2023-06-05T04:07:48;1019.2879854773581;;;12.298957230494107;33.83571142358685
46382;BME280;66809;52.974;-2.514;2023-06-05T04:09:49;1019.2836526502464;;;12.331775821115688;33.782641683798296
46382;BME280;66809;52.974;-2.514;2023-06-05T04:11:49;1019.280179688365;;;12.374387115004174;33.72748848343324
46382;BME280;66809;52.974;-2.514;2023-06-05T04:13:48;1019.2762078353279;;;12.40765652968758;33.66225668888634
46382;BME280;66809;52.974;-2.514;2023-06-05T04:15:59;1019.2723284355496;;;12.448074105780144;33.594222534543555
46382;BME280;66809;52.974;-2.514;2023-06-05T04:17:49;1019.2675532820002;;;12.485502676188682;33.51757645625399
46382;BME280;66809;52.974;-2.514;2023-06-05T04:19:48;1019.2636275153033;;;12.525404453827187;33.450848961744306
46382;BME280;66809;52.974;-2.514;2023-06-05T04:21:49;1019.2597230139804;;;12.578829516949488;33.38917749366511
46382;BME280;66809;52.974;-2.514;2023-06-05T04:23:49;1019.2568417388947;;;12.630994282172686;33.327014117921095
46382;BME280;66809;52.974;-2.514;2023-06-05T04:25:48;1019.2533990662727;;;12.677997190644588;33.26862176244226
46382;BME280;66809;52.974;-2.514;2023-06-05T04:27:50;1019.2514761387134;;;12.722028667015305;33.20818991911967
46382;BME280;66809;52.974;-2.514;2023-06-05T04:29:49;1019.250144215881;;;12.751090919294173;33.16198884364069
46382;BME280;66809;52.974;-2.514;2023-06-05T04:31:49;1019.2480844212373;;;12.785618699965244;33.106060948447144
46382;BME280;66809;52.974;-2.514;2023-06-05T04:33:49;1019.2459738673053;;;12.817096455500183;33.041152863358676
46382;BME280;66809;52.974;-2.514;2023-06-05T04:35:48;1019.2451992612746;;;12.851033891859805;32.983295146703156
46382;BME280;66809;52.974;-2.514;2023-06-05T04:37:49;1019.2448769495219;;;12.883853816104768;32.93444117353802
46382;BME280;66809;52.974;-2.514;2023-06-05T04:39:49;1019.2432994802182;;;12.90802999565429;32.89037462211998
46382;BME280;66809;52.974;-2.514;2023-06-05T04:41:48;1019.2417658421587;;;12.930089573977488;32.84173519657542
46382;BME280;66809;52.974;-2.514;2023-06-05T04:43:49;1019.240579022067;;;12.940511286656324;32.79463490017222
46382;BME280;66809;52.974;-2.514;2023-06-05T04:45:49;1019.2378693096977;;;12.951117859714323;32.74407640421928
46382;BME280;66809;52.974;-2.514;2023-06-05T04:47:48;1019.2357705409687;;;12.970676893479885;32.686304505584026
46382;BME280;66809;52.974;-2.514;2023-06-05T04:49:49;1019.2346418539688;;;12.993589178663031;32.63073075179901
46382;BME280;66809;52.974;-2.514;2023-06-05T04:51:49;1019.2342366193394;;;13.022921553482625;32.581962599452524
46382;BME280;66809;52.974;-2.514;2023-06-05T04:53:48;1019.2340845597198;;;13.038256463824856;32.536815427589175
46382;BME280;66809;52.974;-2.514;2023-06-05T04:55:49;1019.2343385721894;;;13.054061917077558;32.493331262584455
46382;BME280;66809;52.974;-2.514;2023-06-05T04:57:49;1019.2346056992488;;;13.065483583977628;32.4482481976713
46382;BME280;66809;52.974;-2.514;2023-06-05T04:59:48;1019.2362706541866;;;13.077098518902712;32.40118372835287
46382;BME280;66809;52.974;-2.514;2023-06-05T05:01:49;1019.2378306157659;;;13.098819961239098;32.35648228448399
46382;BME280;66809;52.974;-2.514;2023-06-05T05:03:49;1019.2404136931239;;;13.1256927511024;32.311683168805395
46382;BME280;66809;52.974;-2.514;2023-06-05T05:05:48;1019.2416886592503;;;13.155361308952044;32.274430399702005
46382;BME280;66809;52.974;-2.514;2023-06-05T05:07:49;1019.242603101776;;;13.178604300031356;32.23759109434727
46382;BME280;66809;52.974;-2.514;2023-06-05T05:09:49;1019.2432500758387;;;13.197158085970038;32.19293528985735
46382;BME280;66809;52.974;-2.514;2023-06-05T05:11:48;1019.244759749383;;;13.211983466847592;32.14964280094573
46382;BME280;66809;52.974;-2.514;2023-06-05T05:13:49;1019.2470117762917;;;13.24270233408816;32.11157235626004
46382;BME280;66809;52.974;-2.514;2023-06-05T05:15:48;1019.2494033129249;;;13.262368183116964;32.081428541535324
46382;BME280;66809;52.974;-2.514;2023-06-05T05:17:49;1019.2524240608933;;;13.281420678423554;32.06711597300417
46382;BME280;66809;52.974;-2.514;2023-06-05T05:19:49;1019.2548904807604;;;13.304921289938466;32.05655055590083
46382;BME280;66809;52.974;-2.514;2023-06-05T05:21:48;1019.2577717109139;;;13.322542498388783;32.048168536779
46382;BME280;66809;52.974;-2.514;2023-06-05T05:23:49;1019.2596370769717;;;13.33888656074814;32.04435397726033
46382;BME280;66809;52.974;-2.514;2023-06-05T05:25:49;1019.2613558048199;;;13.354384909339936;32.02957015041331
46382;BME280;66809;52.974;-2.514;2023-06-05T05:27:48;1019.2630818308188;;;13.363874896641942;32.00855095254652
46382;BME280;66809;52.974;-2.514;2023-06-05T05:29:49;1019.2649923621256;;;13.389913747710912;31.973767472243125
46382;BME280;66809;52.974;-2.514;2023-06-05T05:31:49;1019.2661659565033;;;13.408462155707333;31.9274639612357
46382;BME280;66809;52.974;-2.514;2023-06-05T05:33:48;1019.2679781465977;;;13.43494855203143;31.898915523801335
46382;BME280;66809;52.974;-2.514;2023-06-05T05:35:49;1019.2686537416121;;;13.453532785793266;31.854117181077758
46382;BME280;66809;52.974;-2.514;2023-06-05T05:37:49;1019.2703798640872;;;13.485312652671587;31.800066599291945
46382;BME280;66809;52.974;-2.514;2023-06-05T05:39:49;1019.2722413284506;;;13.517277361581282;31.734634560825253
46382;BME280;66809;52.974;-2.514;2023-06-05T05:41:48;1019.2735994602122;;;13.538026464321359;31.67989121052407
46382;BME280;66809;52.974;-2.514;2023-06-05T05:43:49;1019.275938950803;;;13.573459106393958;31.634756991618634
46382;BME280;66809;52.974;-2.514;2023-06-05T05:45:49;1019.2777534891826;;;13.594998721673855;31.572158358770444
46382;BME280;66809;52.974;-2.514;2023-06-05T05:47:48;1019.279400718147;;;13.607575257613265;31.505254965744747
46382;BME280;66809;52.974;-2.514;2023-06-05T05:49:49;1019.2786319328912;;;13.621418319278895;31.446430801419478
46382;BME280;66809;52.974;-2.514;2023-06-05T05:51:50;1019.2783494902117;;;13.630883769121631;31.39084651723493
46382;BME280;66809;52.974;-2.514;2023-06-05T05:53:48;1019.2782133732292;;;13.641304874406318;31.333136029374526
46382;BME280;66809;52.974;-2.514;2023-06-05T05:55:49;1019.2771087267444;;;13.646096418105877;31.29065194400975
46382;BME280;66809;52.974;-2.514;2023-06-05T05:57:49;1019.2773832435444;;;13.652278315963612;31.257390259396875
46382;BME280;66809;52.974;-2.514;2023-06-05T05:59:48;1019.2766259248151;;;13.656124366874959;31.223369483698505
46382;BME280;66809;52.974;-2.514;2023-06-05T06:01:49;1019.2754832380493;;;13.653796921142284;31.18837625171118
46382;BME280;66809;52.974;-2.514;2023-06-05T06:03:49;1019.2729845385657;;;13.6411361234274;31.14674631728723
46382;BME280;66809;52.974;-2.514;2023-06-05T06:05:48;1019.2713294937397;;;13.636323804397687;31.093804544022078
46382;BME280;66809;52.974;-2.514;2023-06-05T06:07:49;1019.270827989474;;;13.634779994606248;31.050215657083445
46382;BME280;66809;52.974;-2.514;2023-06-05T06:09:49;1019.2709285980125;;;13.641199382548477;31.005190074542025
46382;BME280;66809;52.974;-2.514;2023-06-05T06:11:49;1019.2715301152454;;;13.65482576416485;30.962396296046222
46382;BME280;66809;52.974;-2.514;2023-06-05T06:13:49;1019.2725628820166;;;13.655863711818196;30.91957163041068
46382;BME280;66809;52.974;-2.514;2023-06-05T06:15:48;1019.2743074044739;;;13.656120242569198;30.853086972476046
46382;BME280;66809;52.974;-2.514;2023-06-05T06:17:49;1019.276002745247;;;13.654282356467636;30.769682609546578
46382;BME280;66809;52.974;-2.514;2023-06-05T06:19:49;1019.2770001917092;;;13.644722709680185;30.692042351006833
46382;BME280;66809;52.974;-2.514;2023-06-05T06:21:49;1019.276922628946;;;13.637202606016386;30.62572903881858
46382;BME280;66809;52.974;-2.514;2023-06-05T06:23:48;1019.2770311121106;;;13.631024652664298;30.54422325533003
46382;BME280;66809;52.974;-2.514;2023-06-05T06:25:49;1019.2776670737169;;;13.624107293214232;30.482430081459725
46382;BME280;66809;52.974;-2.514;2023-06-05T06:27:49;1019.2793632654955;;;13.617114310151345;30.428554588050698
46382;BME280;66809;52.974;-2.514;2023-06-05T06:29:50;1019.2801697027381;;;13.610037300384835;30.370915111001736
46382;BME280;66809;52.974;-2.514;2023-06-05T06:31:48;1019.2821381398513;;;13.608654852974938;30.336526946911956
46382;BME280;66809;52.974;-2.514;2023-06-05T06:33:49;1019.2839685599125;;;13.601300559496373;30.290671802156137
46382;BME280;66809;52.974;-2.514;2023-06-05T06:35:49;1019.2863785579117;;;13.592543074110916;30.250385463490456
46382;BME280;66809;52.974;-2.514;2023-06-05T06:37:48;1019.2874873412;;;13.585337792043392;30.224210473253514
46382;BME280;66809;52.974;-2.514;2023-06-05T06:39:49;1019.2890503744695;;;13.570465621781075;30.208207064747956
46382;BME280;66809;52.974;-2.514;2023-06-05T06:41:49;1019.2919696587685;;;13.557786468150368;30.187614353093974
46382;BME280;66809;52.974;-2.514;2023-06-05T06:43:48;1019.2935558394385;;;13.545409800189011;30.162362066632674
46382;BME280;66809;52.974;-2.514;2023-06-05T06:45:49;1019.2963552855592;;;13.53336923296936;30.154141464025976
46382;BME280;66809;52.974;-2.514;2023-06-05T06:47:49;1019.2995441669929;;;13.529577548761353;30.169726992887103
46382;BME280;66809;52.974;-2.514;2023-06-05T06:49:48;1019.3033208110252;;;13.533614628458434;30.16684639797263
46382;BME280;66809;52.974;-2.514;2023-06-05T06:51:49;1019.3066198662833;;;13.538601174386242;30.1525652835921
46382;BME280;66809;52.974;-2.514;2023-06-05T06:53:49;1019.3122029516187;;;13.543456200516163;30.138401717350714
46382;BME280;66809;52.974;-2.514;2023-06-05T06:55:48;1019.3195876392173;;;13.539885208140465;30.10896273984027
46382;BME280;66809;52.974;-2.514;2023-06-05T06:57:49;1019.3264130733953;;;13.543716671055893;30.083962240558797
46382;BME280;66809;52.974;-2.514;2023-06-05T06:59:49;1019.3330796998946;;;13.550741022336585;30.058514473733208
46382;BME280;66809;52.974;-2.514;2023-06-05T07:02:08;1019.3412779884176;;;13.560605367439262;30.03281717323234
46382;BME280;66809;52.974;-2.514;2023-06-05T07:03:49;1019.3506069415122;;;13.571486401756493;30.007293070915253
46382;BME280;66809;52.974;-2.514;2023-06-05T07:05:49;1019.3597116397533;;;13.58014081622316;29.978436050347923
46382;BME280;66809;52.974;-2.514;2023-06-05T07:07:48;1019.369209306151;;;13.590887420903139;29.954299611022908
46382;BME280;66809;52.974;-2.514;2023-06-05T07:09:50;1019.3795818644088;;;13.598166092897978;29.926074963956054